createdAt,value
2023-05-17T00:00:22.870Z,15.10
2023-05-17T00:03:10.969Z,9.85
2023-05-17T00:05:59.027Z,13.20
2023-05-17T00:08:47.015Z,13.63
2023-05-17T00:11:35.104Z,15.93
2023-05-17T00:14:23.138Z,12.85
2023-05-17T00:17:12.469Z,11.20
2023-05-17T00:20:00.463Z,15.13
2023-05-17T00:22:48.402Z,11.93
2023-05-17T00:25:36.617Z,14.18
2023-05-17T00:28:24.785Z,12.55
2023-05-17T00:31:12.865Z,19.13
2023-05-17T00:34:02.270Z,10.98
2023-05-17T00:36:51.373Z,13.05
2023-05-17T00:39:39.380Z,15.02
2023-05-17T00:42:27.351Z,10.60
2023-05-17T00:45:15.487Z,15.27
2023-05-17T00:48:03.475Z,17.70
2023-05-17T00:50:53.501Z,19.52
2023-05-17T00:53:41.718Z,13.98
2023-05-17T00:56:29.709Z,15.95
2023-05-17T00:59:18.620Z,23.35
2023-05-17T01:02:07.336Z,13.18
2023-05-17T01:04:55.514Z,18.38
2023-05-17T01:07:44.960Z,13.82
2023-05-17T01:10:42.381Z,10.63
2023-05-17T01:13:43.730Z,18.35
2023-05-17T01:16:37.048Z,17.90
2023-05-17T01:19:53.422Z,14.85
2023-05-17T01:22:52.394Z,13.10
2023-05-17T01:25:54.085Z,12.68
2023-05-17T01:28:46.411Z,11.95
2023-05-17T01:31:35.039Z,15.52
2023-05-17T01:34:27.094Z,9.45
2023-05-17T01:37:15.160Z,12.30
2023-05-17T01:40:03.492Z,15.70
2023-05-17T01:42:58.048Z,14.93
2023-05-17T01:48:50.791Z,13.32
2023-05-17T01:51:47.491Z,11.63
2023-05-17T01:54:40.488Z,15.90
2023-05-17T01:57:33.676Z,12.68
2023-05-17T02:00:25.350Z,9.23
2023-05-17T02:03:20.597Z,13.73
2023-05-17T02:06:09.013Z,15.10
2023-05-17T02:08:58.814Z,15.52
2023-05-17T02:11:46.814Z,18.35
2023-05-17T02:14:34.868Z,14.68
2023-05-17T02:17:23.108Z,20.35
2023-05-17T02:20:13.130Z,15.00
2023-05-17T02:23:01.061Z,17.85
2023-05-17T02:25:49.139Z,21.00
2023-05-17T02:28:37.223Z,16.67
2023-05-17T02:31:26.946Z,19.45
2023-05-17T02:34:14.970Z,15.32
2023-05-17T02:37:04.386Z,20.60
2023-05-17T02:39:52.412Z,21.52
2023-05-17T02:42:40.476Z,20.80
2023-05-17T02:45:28.541Z,23.98
2023-05-17T02:48:16.724Z,19.65
2023-05-17T02:51:04.821Z,17.73
2023-05-17T02:53:54.149Z,22.77
2023-05-17T02:56:42.138Z,22.42
2023-05-17T02:59:30.092Z,25.70
2023-05-17T03:02:18.206Z,23.02
2023-05-17T03:05:07.052Z,30.17
2023-05-17T03:07:55.036Z,25.10
2023-05-17T03:10:44.415Z,22.52
2023-05-17T03:13:32.390Z,27.00
2023-05-17T03:16:20.785Z,28.92
2023-05-17T03:19:08.980Z,21.10
2023-05-17T03:21:57.073Z,24.17
2023-05-17T03:24:45.124Z,23.88
2023-05-17T03:27:34.664Z,26.63
2023-05-17T03:30:22.769Z,26.77
2023-05-17T03:33:10.809Z,22.90
2023-05-17T03:35:58.901Z,21.60
2023-05-17T03:38:46.864Z,24.92
2023-05-17T03:41:35.047Z,26.42
2023-05-17T03:44:24.434Z,23.92
2023-05-17T03:47:12.428Z,22.08
2023-05-17T03:50:00.723Z,28.40
2023-05-17T03:52:48.750Z,23.80
2023-05-17T03:55:36.770Z,26.33
2023-05-17T03:58:24.806Z,27.33
2023-05-17T04:01:14.142Z,20.98
2023-05-17T04:04:04.593Z,21.77
2023-05-17T04:06:52.641Z,27.52
2023-05-17T04:09:40.616Z,24.50
2023-05-17T04:12:28.802Z,25.50
2023-05-17T04:15:16.787Z,25.75
2023-05-17T04:18:06.668Z,23.70
2023-05-17T04:20:56.327Z,23.20
2023-05-17T04:23:44.295Z,22.98
2023-05-17T04:26:32.278Z,23.75
2023-05-17T04:29:20.641Z,20.48
2023-05-17T04:32:09.921Z,23.20
2023-05-17T04:34:59.304Z,23.23
2023-05-17T04:37:47.330Z,23.60
2023-05-17T04:40:35.375Z,25.73
2023-05-17T04:43:23.385Z,19.02
2023-05-17T04:46:11.659Z,20.80
2023-05-17T04:49:00.362Z,22.73
2023-05-17T04:51:50.267Z,25.25
2023-05-17T04:54:38.220Z,27.85
2023-05-17T04:57:26.316Z,20.80
2023-05-17T05:00:15.443Z,25.15
2023-05-17T05:03:05.062Z,23.45
2023-05-17T05:05:53.196Z,26.33
2023-05-17T05:08:42.582Z,25.17
2023-05-17T05:11:31.526Z,23.77
2023-05-17T05:14:19.476Z,21.10
2023-05-17T05:17:07.547Z,20.13
2023-05-17T05:19:55.646Z,22.10
2023-05-17T05:22:43.655Z,22.02
2023-05-17T05:25:33.266Z,18.15
2023-05-17T05:28:21.252Z,26.02
2023-05-17T05:31:09.246Z,20.95
2023-05-17T05:33:58.142Z,23.02
2023-05-17T05:36:46.268Z,22.90
2023-05-17T05:39:34.224Z,27.73
2023-05-17T05:42:23.621Z,34.50
2023-05-17T05:45:13.401Z,26.15
2023-05-17T05:48:01.649Z,48.20
2023-05-17T05:50:49.806Z,26.90
2023-05-17T05:53:37.846Z,30.88
2023-05-17T05:56:27.671Z,31.88
2023-05-17T05:59:17.079Z,30.48
2023-05-17T06:02:05.367Z,25.10
2023-05-17T06:04:53.344Z,35.10
2023-05-17T06:07:41.322Z,25.23
2023-05-17T06:10:29.555Z,26.30
2023-05-17T06:13:17.826Z,32.80
2023-05-17T06:16:07.711Z,32.75
2023-05-17T06:18:56.387Z,28.38
2023-05-17T06:21:44.803Z,25.70
2023-05-17T06:24:33.259Z,25.95
2023-05-17T06:27:21.439Z,28.73
2023-05-17T06:30:10.770Z,21.75
2023-05-17T06:33:00.332Z,24.85
2023-05-17T06:38:42.549Z,26.50
2023-05-17T06:41:31.576Z,32.63
2023-05-17T06:44:19.572Z,30.23
2023-05-17T06:47:07.654Z,30.17
2023-05-17T06:49:57.056Z,38.28
2023-05-17T06:52:45.198Z,33.45
2023-05-17T06:55:33.221Z,33.58
2023-05-17T06:58:21.181Z,44.10
2023-05-17T07:01:09.200Z,37.97
2023-05-17T07:03:57.475Z,40.47
2023-05-17T07:06:46.999Z,41.30
2023-05-17T07:09:34.993Z,39.15
2023-05-17T07:12:23.047Z,34.08
2023-05-17T07:15:12.074Z,37.15
2023-05-17T07:18:00.923Z,41.92
2023-05-17T07:20:49.053Z,34.45
2023-05-17T07:23:38.489Z,33.17
2023-05-17T07:26:26.692Z,35.60
2023-05-17T07:29:14.666Z,30.67
2023-05-17T07:32:02.744Z,39.13
2023-05-17T07:34:50.732Z,34.92
2023-05-17T07:37:38.694Z,37.85
2023-05-17T07:40:28.051Z,35.30
2023-05-17T07:43:16.210Z,33.55
2023-05-17T07:46:04.204Z,32.88
2023-05-17T07:48:52.475Z,28.30
2023-05-17T07:51:40.675Z,28.00
2023-05-17T07:54:28.829Z,22.83
2023-05-17T07:57:18.669Z,38.45
2023-05-17T08:00:08.876Z,25.23
2023-05-17T08:02:57.844Z,29.27
2023-05-17T08:05:45.926Z,26.92
2023-05-17T08:08:34.027Z,27.10
2023-05-17T08:11:22.023Z,25.63
2023-05-17T08:14:11.418Z,29.55
2023-05-17T08:16:59.479Z,23.77
2023-05-17T08:19:47.503Z,26.33
2023-05-17T08:22:35.524Z,25.02
2023-05-17T08:25:23.641Z,25.67
2023-05-17T08:28:11.625Z,28.83
2023-05-17T08:31:02.102Z,26.92
2023-05-17T08:33:50.150Z,32.92
2023-05-17T08:36:38.333Z,34.08
2023-05-17T08:39:26.481Z,35.67
2023-05-17T08:42:16.106Z,31.35
2023-05-17T08:45:04.565Z,29.15
2023-05-17T08:47:55.019Z,28.40
2023-05-17T08:50:43.921Z,32.85
2023-05-17T08:53:32.004Z,24.63
2023-05-17T08:56:23.133Z,37.53
2023-05-17T08:59:11.776Z,32.58
2023-05-17T09:02:00.634Z,31.73
2023-05-17T09:04:55.895Z,30.73
2023-05-17T09:07:44.123Z,36.60
2023-05-17T09:10:32.156Z,41.72
2023-05-17T09:13:20.213Z,32.88
2023-05-17T09:16:15.136Z,37.60
2023-05-17T09:19:05.569Z,35.58
2023-05-17T09:21:56.924Z,33.47
2023-05-17T09:24:45.025Z,36.50
2023-05-17T09:27:33.409Z,36.78
2023-05-17T09:30:28.102Z,31.27
2023-05-17T09:33:18.571Z,43.65
2023-05-17T09:36:17.280Z,42.70
2023-05-17T09:39:12.146Z,38.83
2023-05-17T09:42:01.163Z,40.30
2023-05-17T09:44:51.095Z,34.08
2023-05-17T09:47:39.054Z,40.75
2023-05-17T09:50:27.137Z,42.47
2023-05-17T09:53:26.104Z,40.45
2023-05-17T09:56:17.486Z,36.72
2023-05-17T09:59:11.794Z,34.85
2023-05-17T10:02:01.814Z,39.30
2023-05-17T10:04:51.797Z,49.72
2023-05-17T10:07:40.079Z,39.88
2023-05-17T10:10:28.837Z,41.67
2023-05-17T10:13:22.290Z,44.70
2023-05-17T10:16:11.008Z,45.25
2023-05-17T10:18:59.282Z,35.55
2023-05-17T10:21:49.313Z,38.72
2023-05-17T10:24:38.260Z,32.72
2023-05-17T10:27:27.229Z,38.50
2023-05-17T10:30:17.642Z,29.42
2023-05-17T10:33:06.029Z,32.30
2023-05-17T10:35:56.093Z,32.78
2023-05-17T10:38:44.185Z,38.25
2023-05-17T10:41:35.059Z,34.75
2023-05-17T10:44:23.858Z,34.35
2023-05-17T10:47:15.455Z,38.88
2023-05-17T10:50:10.272Z,38.60
2023-05-17T10:53:00.670Z,36.25
2023-05-17T10:55:48.660Z,32.70
2023-05-17T10:58:36.645Z,28.27
2023-05-17T11:02:09.207Z,27.88
2023-05-17T11:05:00.483Z,28.00
2023-05-17T11:07:49.898Z,27.75
2023-05-17T11:10:38.165Z,31.10
2023-05-17T11:13:28.491Z,27.38
2023-05-17T11:16:18.355Z,29.10
2023-05-17T11:19:11.614Z,28.73
2023-05-17T11:22:12.148Z,26.90
2023-05-17T11:25:02.577Z,25.83
2023-05-17T11:27:52.769Z,27.75
2023-05-17T11:30:51.301Z,25.83
2023-05-17T11:33:40.827Z,24.00
2023-05-17T11:36:28.841Z,21.50
2023-05-17T11:39:21.674Z,27.80
2023-05-17T11:42:26.308Z,20.70
2023-05-17T11:45:14.474Z,25.63
2023-05-17T11:48:02.702Z,33.20
2023-05-17T11:50:52.388Z,30.10
2023-05-17T11:53:41.477Z,27.27
2023-05-17T11:59:30.393Z,21.15
2023-05-17T12:02:28.684Z,29.35
2023-05-17T12:05:21.270Z,27.73
2023-05-17T12:08:09.290Z,24.55
2023-05-17T12:10:57.646Z,23.30
2023-05-17T12:13:49.172Z,24.33
2023-05-17T12:16:38.005Z,24.98
2023-05-17T12:19:28.044Z,25.33
2023-05-17T12:22:16.127Z,30.90
2023-05-17T12:25:04.140Z,24.65
2023-05-17T12:27:52.211Z,23.13
2023-05-17T12:30:41.840Z,23.70
2023-05-17T12:33:32.320Z,25.70
2023-05-17T12:36:20.571Z,20.15
2023-05-17T12:39:10.151Z,25.33
2023-05-17T12:41:58.327Z,27.70
2023-05-17T12:44:46.496Z,33.67
2023-05-17T12:47:36.031Z,23.92
2023-05-17T12:50:27.543Z,29.85
2023-05-17T12:53:15.843Z,27.77
2023-05-17T12:56:03.983Z,27.55
2023-05-17T12:59:12.099Z,26.33
2023-05-17T13:02:00.789Z,24.42
2023-05-17T13:04:50.522Z,23.77
2023-05-17T13:07:38.535Z,24.88
2023-05-17T13:10:28.843Z,24.17
2023-05-17T13:13:20.534Z,19.98
2023-05-17T13:16:09.319Z,20.67
2023-05-17T13:18:57.474Z,17.27
2023-05-17T13:21:46.952Z,20.70
2023-05-17T13:24:36.288Z,13.25
2023-05-17T13:27:24.325Z,13.82
2023-05-17T13:30:12.968Z,12.82
2023-05-17T13:33:01.110Z,16.20
2023-05-17T13:35:49.212Z,12.23
2023-05-17T13:38:38.642Z,11.25
2023-05-17T13:41:26.695Z,13.68
2023-05-17T13:44:14.762Z,10.25
2023-05-17T13:47:02.910Z,11.05
2023-05-17T13:49:50.941Z,8.15
2023-05-17T13:52:38.978Z,10.25
2023-05-17T13:55:28.551Z,8.32
2023-05-17T13:58:18.007Z,9.77
2023-05-17T14:01:06.600Z,12.18
2023-05-17T14:03:55.315Z,11.38
2023-05-17T14:06:44.353Z,10.98
2023-05-17T14:09:34.636Z,11.52
2023-05-17T14:12:24.105Z,8.30
2023-05-17T14:15:12.568Z,9.27
2023-05-17T14:18:00.729Z,9.98
2023-05-17T14:20:48.752Z,6.55
2023-05-17T14:23:36.849Z,8.95
2023-05-17T14:26:24.902Z,7.97
2023-05-17T14:29:14.453Z,9.15
2023-05-17T14:32:02.505Z,9.90
2023-05-17T14:34:50.806Z,10.45
2023-05-17T14:37:38.809Z,7.63
2023-05-17T14:40:26.772Z,15.07
2023-05-17T14:43:14.835Z,13.98
2023-05-17T14:46:04.238Z,9.18
2023-05-17T14:48:52.718Z,9.45
2023-05-17T14:51:41.253Z,13.20
2023-05-17T14:54:31.165Z,10.38
2023-05-17T14:57:21.272Z,7.88
2023-05-17T15:00:11.300Z,8.80
2023-05-17T15:03:01.198Z,13.05
2023-05-17T15:05:54.764Z,9.13
2023-05-17T15:08:42.836Z,9.38
2023-05-17T15:11:31.392Z,7.93
2023-05-17T15:14:22.526Z,7.45
2023-05-17T15:17:10.485Z,9.40
2023-05-17T15:19:59.991Z,7.93
2023-05-17T15:22:48.312Z,8.27
2023-05-17T15:25:39.116Z,7.95
2023-05-17T15:28:27.254Z,6.95
2023-05-17T15:31:15.223Z,7.47
2023-05-17T15:34:03.266Z,7.72
2023-05-17T15:36:52.712Z,7.90
2023-05-17T15:39:41.239Z,8.90
2023-05-17T15:42:29.260Z,9.27
2023-05-17T15:45:17.260Z,6.70
2023-05-17T15:48:06.896Z,7.25
2023-05-17T15:50:54.992Z,11.50
2023-05-17T15:53:44.415Z,8.30
2023-05-17T15:56:32.369Z,7.25
2023-05-17T15:59:20.396Z,10.38
2023-05-17T16:02:08.465Z,8.35
2023-05-17T16:04:56.480Z,8.20
2023-05-17T16:07:44.440Z,10.35
2023-05-17T16:10:33.848Z,9.18
2023-05-17T16:13:21.892Z,10.07
2023-05-17T16:16:10.697Z,10.98
2023-05-17T16:18:58.741Z,14.05
2023-05-17T16:21:50.398Z,12.20
2023-05-17T16:24:38.826Z,13.93
2023-05-17T16:27:28.332Z,11.02
2023-05-17T16:30:17.010Z,11.52
2023-05-17T16:33:06.905Z,10.27
2023-05-17T16:35:56.461Z,10.48
2023-05-17T16:38:44.670Z,8.05
2023-05-17T16:41:33.529Z,13.93
2023-05-17T16:44:23.271Z,17.10
2023-05-17T16:47:11.378Z,16.23
2023-05-17T16:50:01.409Z,13.93
2023-05-17T16:52:49.464Z,16.77
2023-05-17T16:55:37.593Z,18.15
2023-05-17T16:58:26.153Z,20.45
2023-05-17T17:01:16.104Z,13.73
2023-05-17T17:04:04.483Z,16.58
2023-05-17T17:06:52.594Z,16.17
2023-05-17T17:09:40.584Z,11.85
2023-05-17T17:12:28.595Z,10.98
2023-05-17T17:15:16.944Z,15.90
2023-05-17T17:18:06.676Z,16.63
2023-05-17T17:20:54.976Z,17.25
2023-05-17T17:23:43.195Z,17.95
2023-05-17T17:26:31.278Z,19.58
2023-05-17T17:29:19.281Z,19.25
2023-05-17T17:32:08.607Z,23.85
2023-05-17T17:34:58.108Z,15.68
2023-05-17T17:37:46.192Z,19.05
2023-05-17T17:40:34.247Z,19.30
2023-05-17T17:43:22.466Z,12.02
2023-05-17T17:46:10.673Z,20.60
2023-05-17T17:48:58.751Z,18.38
2023-05-17T17:51:48.158Z,18.30
2023-05-17T17:54:36.127Z,15.23
2023-05-17T17:57:24.066Z,15.25
2023-05-17T18:00:16.151Z,19.88
2023-05-17T18:03:04.242Z,19.52
2023-05-17T18:05:52.238Z,20.45
2023-05-17T18:08:43.663Z,23.73
2023-05-17T18:11:31.712Z,15.85
2023-05-17T18:14:19.734Z,18.00
2023-05-17T18:17:08.219Z,13.15
2023-05-17T18:19:56.307Z,24.23
2023-05-17T18:22:44.379Z,16.05
2023-05-17T18:25:34.111Z,14.68
2023-05-17T18:28:33.898Z,18.50
2023-05-17T18:31:29.710Z,16.60
2023-05-17T18:34:19.370Z,15.52
2023-05-17T18:37:07.413Z,18.50
2023-05-17T18:39:55.505Z,16.38
2023-05-17T18:42:44.953Z,15.23
2023-05-17T18:45:36.331Z,14.50
2023-05-17T18:48:25.290Z,17.42
2023-05-17T18:51:15.451Z,18.40
2023-05-17T18:54:03.854Z,18.50
2023-05-17T18:56:51.916Z,10.93
2023-05-17T18:59:41.284Z,10.65
2023-05-17T19:02:29.320Z,11.52
2023-05-17T19:05:17.435Z,17.35
2023-05-17T19:08:05.604Z,12.23
2023-05-17T19:10:53.659Z,14.52
2023-05-17T19:13:42.030Z,17.55
2023-05-17T19:16:31.979Z,17.05
2023-05-17T19:19:22.273Z,20.70
2023-05-17T19:22:11.236Z,17.13
2023-05-17T19:25:00.339Z,15.45
2023-05-17T19:27:48.457Z,21.30
2023-05-17T19:30:37.054Z,21.80
2023-05-17T19:33:26.887Z,15.30
2023-05-17T19:36:15.098Z,14.80
2023-05-17T19:39:03.610Z,18.48
2023-05-17T19:41:51.895Z,19.35
2023-05-17T19:44:40.051Z,20.92
2023-05-17T19:47:28.421Z,24.55
2023-05-17T19:50:18.140Z,16.50
2023-05-17T19:53:06.898Z,19.92
2023-05-17T19:55:55.705Z,15.60
2023-05-17T19:58:43.830Z,20.35
2023-05-17T20:01:32.289Z,22.15
2023-05-17T20:04:20.688Z,14.70
2023-05-17T20:07:10.252Z,16.67
2023-05-17T20:09:58.449Z,16.83
2023-05-17T20:12:46.830Z,16.10
2023-05-17T20:15:35.033Z,17.27
2023-05-17T20:18:23.285Z,16.40
2023-05-17T20:21:12.852Z,15.32
2023-05-17T20:24:04.068Z,18.35
2023-05-17T20:26:52.156Z,15.75
2023-05-17T20:29:41.097Z,19.33
2023-05-17T20:32:29.291Z,16.10
2023-05-17T20:35:17.396Z,18.13
2023-05-17T20:38:05.394Z,17.13
2023-05-17T20:40:55.594Z,17.63
2023-05-17T20:43:46.325Z,17.33
2023-05-17T20:46:35.597Z,18.85
2023-05-17T20:49:23.660Z,18.20
2023-05-17T20:52:11.675Z,17.83
2023-05-17T20:54:59.608Z,17.17
2023-05-17T20:57:49.015Z,15.90
2023-05-17T21:00:38.037Z,13.90
2023-05-17T21:03:28.222Z,19.90
2023-05-17T21:06:16.507Z,17.38
2023-05-17T21:09:04.587Z,18.42
2023-05-17T21:11:53.106Z,17.65
2023-05-17T21:14:42.543Z,19.17
2023-05-17T21:17:30.545Z,17.05
2023-05-17T21:20:18.816Z,16.60
2023-05-17T21:23:06.873Z,13.82
2023-05-17T21:25:54.903Z,23.25
2023-05-17T21:28:42.924Z,20.65
2023-05-17T21:31:32.809Z,16.30
2023-05-17T21:34:20.861Z,11.02
2023-05-17T21:37:08.836Z,12.52
2023-05-17T21:39:56.792Z,15.23
2023-05-17T21:42:44.812Z,11.43
2023-05-17T21:45:32.814Z,15.93
2023-05-17T21:48:22.210Z,13.63
2023-05-17T21:51:10.213Z,18.23
2023-05-17T21:53:58.294Z,16.08
2023-05-17T21:56:46.335Z,15.68
2023-05-17T21:59:34.521Z,17.63
2023-05-17T22:02:22.585Z,14.52
2023-05-17T22:05:12.508Z,19.15
2023-05-17T22:08:00.934Z,14.20
2023-05-17T22:10:50.264Z,17.23
2023-05-17T22:13:38.388Z,16.55
2023-05-17T22:16:26.525Z,14.95
2023-05-17T22:19:14.610Z,15.10
2023-05-17T22:22:03.993Z,18.77
2023-05-17T22:24:54.028Z,19.13
2023-05-17T22:27:42.072Z,17.65
2023-05-17T22:30:30.181Z,20.83
2023-05-17T22:33:18.302Z,13.85
2023-05-17T22:36:06.675Z,17.35
2023-05-17T22:38:56.780Z,20.70
2023-05-17T22:41:44.775Z,19.77
2023-05-17T22:44:33.812Z,17.08
2023-05-17T22:47:23.039Z,14.65
2023-05-17T22:50:12.180Z,17.45
2023-05-17T22:53:01.144Z,15.27
2023-05-17T22:55:50.658Z,13.40
2023-05-17T22:58:38.692Z,26.85
2023-05-17T23:01:26.828Z,18.75
2023-05-17T23:04:14.880Z,17.17
2023-05-17T23:07:03.549Z,13.15
2023-05-17T23:09:53.825Z,16.00
2023-05-17T23:12:43.180Z,16.23
2023-05-17T23:15:34.495Z,19.75
2023-05-17T23:18:22.486Z,15.77
2023-05-17T23:21:12.127Z,14.00
2023-05-17T23:24:00.925Z,11.45
2023-05-17T23:26:48.922Z,15.10
2023-05-17T23:29:41.482Z,13.45
2023-05-17T23:32:32.440Z,14.90
2023-05-17T23:35:20.555Z,17.17
2023-05-17T23:38:08.529Z,21.33
2023-05-17T23:40:58.295Z,18.98
2023-05-17T23:43:46.894Z,15.25
2023-05-17T23:46:36.523Z,14.95
2023-05-17T23:49:24.633Z,14.57
2023-05-17T23:52:12.649Z,15.00
2023-05-17T23:55:01.667Z,15.45
2023-05-17T23:57:49.657Z,11.43
